createdAt,value
2018-01-28T00:01:49.686Z,7.00
2018-01-28T00:04:17.088Z,6.88
2018-01-28T00:06:44.504Z,6.86
2018-01-28T00:09:11.924Z,6.84
2018-01-28T00:11:39.336Z,6.84
2018-01-28T00:14:06.740Z,6.78
2018-01-28T00:16:34.160Z,6.73
2018-01-28T00:19:01.577Z,6.74
2018-01-28T00:21:28.989Z,6.61
2018-01-28T00:23:56.414Z,6.55
2018-01-28T00:26:23.829Z,6.52
2018-01-28T00:28:51.244Z,6.55
2018-01-28T00:31:18.673Z,6.47
2018-01-28T00:33:46.097Z,6.44
2018-01-28T00:36:13.523Z,6.47
2018-01-28T00:38:40.945Z,6.39
2018-01-28T00:41:08.354Z,6.39
2018-01-28T00:43:35.761Z,6.32
2018-01-28T00:46:03.182Z,6.30
2018-01-28T00:48:30.589Z,6.22
2018-01-28T00:50:58.002Z,6.37
2018-01-28T00:53:25.424Z,6.36
2018-01-28T00:55:52.830Z,6.30
2018-01-28T00:58:20.236Z,6.30
2018-01-28T01:00:47.656Z,6.35
2018-01-28T01:03:15.064Z,6.37
2018-01-28T01:05:42.473Z,6.32
2018-01-28T01:08:09.892Z,6.34
2018-01-28T01:10:37.301Z,6.38
2018-01-28T01:13:04.783Z,6.30
2018-01-28T01:15:32.192Z,6.31
2018-01-28T01:17:59.605Z,6.28
2018-01-28T01:20:27.025Z,6.29
2018-01-28T01:22:54.451Z,6.28
2018-01-28T01:25:21.864Z,6.29
2018-01-28T01:27:49.269Z,6.32
2018-01-28T01:30:16.689Z,6.34
2018-01-28T01:32:44.140Z,6.29
2018-01-28T01:35:11.556Z,6.36
2018-01-28T01:37:38.997Z,6.29
2018-01-28T01:40:06.400Z,6.29
2018-01-28T01:42:33.822Z,6.28
2018-01-28T01:45:01.244Z,6.23
2018-01-28T01:47:28.653Z,6.29
2018-01-28T01:49:56.061Z,6.27
2018-01-28T01:52:23.486Z,6.32
2018-01-28T01:54:50.892Z,6.39
2018-01-28T01:57:18.301Z,6.33
2018-01-28T01:59:45.733Z,6.40
2018-01-28T02:02:13.147Z,6.48
2018-01-28T02:04:40.586Z,6.51
2018-01-28T02:07:08.009Z,6.52
2018-01-28T02:09:35.416Z,6.58
2018-01-28T02:12:02.820Z,6.56
2018-01-28T02:14:30.241Z,6.62
2018-01-28T02:16:57.645Z,6.55
2018-01-28T02:19:25.073Z,6.59
2018-01-28T02:21:52.501Z,6.54
2018-01-28T02:24:19.920Z,6.55
2018-01-28T02:26:47.329Z,6.56
2018-01-28T02:29:14.757Z,6.61
2018-01-28T02:31:42.177Z,6.57
2018-01-28T02:34:09.610Z,6.72
2018-01-28T02:36:37.029Z,6.68
2018-01-28T02:39:04.441Z,6.69
2018-01-28T02:41:32.052Z,6.70
2018-01-28T02:43:59.485Z,6.70
2018-01-28T02:46:26.890Z,6.71
2018-01-28T02:48:54.313Z,6.72
2018-01-28T02:51:21.736Z,6.64
2018-01-28T02:53:49.150Z,6.64
2018-01-28T02:56:16.557Z,6.68
2018-01-28T02:58:43.997Z,6.72
2018-01-28T03:01:11.404Z,6.78
2018-01-28T03:03:38.813Z,6.78
2018-01-28T03:06:06.245Z,6.85
2018-01-28T03:08:33.652Z,6.87
2018-01-28T03:11:01.061Z,6.86
2018-01-28T03:13:28.501Z,6.94
2018-01-28T03:15:55.918Z,6.96
2018-01-28T03:18:23.329Z,6.99
2018-01-28T03:20:50.752Z,6.99
2018-01-28T03:23:18.173Z,6.94
2018-01-28T03:25:45.579Z,7.03
2018-01-28T03:28:13.017Z,7.04
2018-01-28T03:30:40.422Z,7.03
2018-01-28T03:33:07.830Z,7.06
2018-01-28T03:35:35.252Z,6.98
2018-01-28T03:38:02.668Z,7.02
2018-01-28T03:40:30.085Z,7.03
2018-01-28T03:42:57.518Z,6.93
2018-01-28T03:45:24.917Z,7.03
2018-01-28T03:47:52.365Z,7.06
2018-01-28T03:50:19.792Z,7.13
2018-01-28T03:52:47.200Z,7.11
2018-01-28T03:55:14.609Z,7.12
2018-01-28T03:57:42.028Z,7.14
2018-01-28T04:00:09.453Z,7.18
2018-01-28T04:02:36.856Z,7.19
2018-01-28T04:05:04.283Z,7.22
2018-01-28T04:07:31.689Z,7.07
2018-01-28T04:09:59.098Z,7.11
2018-01-28T04:12:26.517Z,7.13
2018-01-28T04:14:53.925Z,7.19
2018-01-28T04:17:21.333Z,7.21
2018-01-28T04:19:48.759Z,7.25
2018-01-28T04:22:16.180Z,7.24
2018-01-28T04:24:43.588Z,7.20
2018-01-28T04:27:11.028Z,7.19
2018-01-28T04:29:38.448Z,7.20
2018-01-28T04:32:05.861Z,7.23
2018-01-28T04:34:33.292Z,7.25
2018-01-28T04:37:00.699Z,7.27
2018-01-28T04:39:28.124Z,7.28
2018-01-28T04:41:55.545Z,7.25
2018-01-28T04:44:22.953Z,7.41
2018-01-28T04:46:50.381Z,7.47
2018-01-28T04:49:17.800Z,7.48
2018-01-28T04:51:45.268Z,7.40
2018-01-28T04:54:12.701Z,7.45
2018-01-28T04:56:40.112Z,7.52
2018-01-28T04:59:07.530Z,7.58
2018-01-28T05:01:34.965Z,7.58
2018-01-28T05:04:02.382Z,7.61
2018-01-28T05:06:29.788Z,7.61
2018-01-28T05:08:57.197Z,7.68
2018-01-28T05:11:24.639Z,7.70
2018-01-28T05:13:52.045Z,7.63
2018-01-28T05:16:19.457Z,7.62
2018-01-28T05:18:46.905Z,7.69
2018-01-28T05:21:14.316Z,7.75
2018-01-28T05:23:41.721Z,7.69
2018-01-28T05:26:09.145Z,7.68
2018-01-28T05:28:36.556Z,7.67
2018-01-28T05:31:03.965Z,7.63
2018-01-28T05:33:31.389Z,7.73
2018-01-28T05:35:58.800Z,7.74
2018-01-28T05:38:26.213Z,7.66
2018-01-28T05:40:53.653Z,7.65
2018-01-28T05:43:21.064Z,7.67
2018-01-28T05:45:48.511Z,7.71
2018-01-28T05:48:15.996Z,7.77
2018-01-28T05:50:43.401Z,7.74
2018-01-28T05:53:10.808Z,7.81
2018-01-28T05:55:38.233Z,7.89
2018-01-28T05:58:05.644Z,7.86
2018-01-28T06:00:33.066Z,7.81
2018-01-28T06:03:00.508Z,7.83
2018-01-28T06:05:27.918Z,7.77
2018-01-28T06:07:55.316Z,7.72
2018-01-28T06:10:22.757Z,7.76
2018-01-28T06:12:50.184Z,7.71
2018-01-28T06:15:17.609Z,7.77
2018-01-28T06:17:45.041Z,7.85
2018-01-28T06:20:12.448Z,7.87
2018-01-28T06:22:39.864Z,7.93
2018-01-28T06:25:07.293Z,7.93
2018-01-28T06:27:34.701Z,7.93
2018-01-28T06:30:03.144Z,8.00
2018-01-28T06:32:30.556Z,8.01
2018-01-28T06:34:57.973Z,8.00
2018-01-28T06:37:25.381Z,8.11
2018-01-28T06:39:52.801Z,8.07
2018-01-28T06:42:20.237Z,8.10
2018-01-28T06:44:47.644Z,8.08
2018-01-28T06:47:15.077Z,8.06
2018-01-28T06:49:42.509Z,8.09
2018-01-28T06:52:09.925Z,8.05
2018-01-28T06:54:37.340Z,8.08
2018-01-28T06:57:04.769Z,8.16
2018-01-28T06:59:32.176Z,8.22
2018-01-28T07:01:59.596Z,8.21
2018-01-28T07:04:27.006Z,8.26
2018-01-28T07:06:56.429Z,8.30
2018-01-28T07:09:23.854Z,8.32
2018-01-28T07:11:51.269Z,8.27
2018-01-28T07:14:18.681Z,8.25
2018-01-28T07:16:46.143Z,8.36
2018-01-28T07:19:13.543Z,8.41
2018-01-28T07:21:40.962Z,8.40
2018-01-28T07:24:08.396Z,8.36
2018-01-28T07:26:35.809Z,8.41
2018-01-28T07:29:03.265Z,8.44
2018-01-28T07:31:30.718Z,8.40
2018-01-28T07:33:58.128Z,8.45
2018-01-28T07:36:25.548Z,8.51
2018-01-28T07:38:52.956Z,8.46
2018-01-28T07:41:20.374Z,8.53
2018-01-28T07:43:47.788Z,8.53
2018-01-28T07:46:15.217Z,8.62
2018-01-28T07:48:42.634Z,8.61
2018-01-28T07:51:10.052Z,8.62
2018-01-28T07:53:37.489Z,8.64
2018-01-28T07:56:04.917Z,8.68
2018-01-28T07:58:32.331Z,8.67
2018-01-28T08:01:00.669Z,8.69
2018-01-28T08:03:29.184Z,8.70
2018-01-28T08:05:56.606Z,8.66
2018-01-28T08:08:24.076Z,8.62
2018-01-28T08:10:51.469Z,8.67
2018-01-28T08:13:24.404Z,8.78
2018-01-28T08:15:51.822Z,8.80
2018-01-28T08:18:19.267Z,8.71
2018-01-28T08:20:46.711Z,8.75
2018-01-28T08:23:14.191Z,8.72
2018-01-28T08:25:41.593Z,8.73
2018-01-28T08:28:13.960Z,8.69
2018-01-28T08:30:41.399Z,8.70
2018-01-28T08:33:08.814Z,8.78
2018-01-28T08:35:36.248Z,8.84
2018-01-28T08:38:03.681Z,8.93
2018-01-28T08:40:31.102Z,8.89
2018-01-28T08:42:58.570Z,8.89
2018-01-28T08:45:26.017Z,8.83
2018-01-28T08:47:53.429Z,8.92
2018-01-28T08:50:20.850Z,8.91
2018-01-28T08:52:48.312Z,8.95
2018-01-28T08:55:15.731Z,9.08
2018-01-28T08:57:43.141Z,9.06
2018-01-28T09:00:10.557Z,8.96
2018-01-28T09:02:38.028Z,8.91
2018-01-28T09:05:05.457Z,8.98
2018-01-28T09:07:32.884Z,9.00
2018-01-28T09:10:00.398Z,8.98
2018-01-28T09:12:27.821Z,8.95
2018-01-28T09:14:55.232Z,8.97
2018-01-28T09:17:22.656Z,9.03
2018-01-28T09:19:50.077Z,9.04
2018-01-28T09:22:18.443Z,9.02
2018-01-28T09:24:45.927Z,8.99
2018-01-28T09:27:13.353Z,8.99
2018-01-28T09:29:40.797Z,9.05
2018-01-28T09:32:10.120Z,9.02
2018-01-28T09:34:37.592Z,8.98
2018-01-28T09:37:05.020Z,9.00
2018-01-28T09:39:32.431Z,9.11
2018-01-28T09:41:59.848Z,9.18
2018-01-28T09:44:27.260Z,9.15
2018-01-28T09:46:54.694Z,9.13
2018-01-28T09:49:22.138Z,9.17
2018-01-28T09:51:49.682Z,9.14
2018-01-28T09:54:17.486Z,9.25
2018-01-28T09:56:44.882Z,9.29
2018-01-28T09:59:12.284Z,9.31
2018-01-28T10:01:39.709Z,9.30
2018-01-28T10:04:07.116Z,9.35
2018-01-28T10:06:37.928Z,9.33
2018-01-28T10:09:06.111Z,9.35
2018-01-28T10:11:33.872Z,9.36
2018-01-28T10:14:01.304Z,9.39
2018-01-28T10:16:28.749Z,9.44
2018-01-28T10:18:56.152Z,9.42
2018-01-28T10:21:23.599Z,9.42
2018-01-28T10:23:51.108Z,9.48
2018-01-28T10:26:19.432Z,9.39
2018-01-28T10:28:46.860Z,9.47
2018-01-28T10:31:14.349Z,9.46
2018-01-28T10:33:42.128Z,9.41
2018-01-28T10:36:10.110Z,9.49
2018-01-28T10:38:38.802Z,9.43
2018-01-28T10:41:06.577Z,9.41
2018-01-28T10:43:33.977Z,9.48
2018-01-28T10:46:01.536Z,9.51
2018-01-28T10:48:29.020Z,9.62
2018-01-28T10:50:56.465Z,9.70
2018-01-28T10:53:23.901Z,9.69
2018-01-28T10:55:51.332Z,9.70
2018-01-28T10:58:18.781Z,9.68
2018-01-28T11:00:46.222Z,9.67
2018-01-28T11:03:14.670Z,9.76
2018-01-28T11:05:42.140Z,9.77
2018-01-28T11:08:09.572Z,9.83
2018-01-28T11:10:36.985Z,9.91
2018-01-28T11:13:04.432Z,9.94
2018-01-28T11:15:32.489Z,9.83
2018-01-28T11:17:59.909Z,9.89
2018-01-28T11:20:27.348Z,9.84
2018-01-28T11:22:55.473Z,9.81
2018-01-28T11:25:22.884Z,9.87
2018-01-28T11:27:50.312Z,9.96
2018-01-28T11:30:17.724Z,10.02
2018-01-28T11:32:45.149Z,10.05
2018-01-28T11:35:12.637Z,9.97
2018-01-28T11:37:40.040Z,9.94
2018-01-28T11:40:07.465Z,10.04
2018-01-28T11:42:34.940Z,10.13
2018-01-28T11:45:02.353Z,10.18
2018-01-28T11:47:29.786Z,10.09
2018-01-28T11:49:57.217Z,10.15
2018-01-28T11:52:24.653Z,10.22
2018-01-28T11:54:52.077Z,10.25
2018-01-28T11:57:19.521Z,10.23
2018-01-28T11:59:46.957Z,10.22
2018-01-28T12:02:20.189Z,10.23
2018-01-28T12:04:47.597Z,10.30
2018-01-28T12:07:17.961Z,10.26
2018-01-28T12:09:45.402Z,10.32
2018-01-28T12:12:12.827Z,10.30
2018-01-28T12:14:40.285Z,10.38
2018-01-28T12:17:07.731Z,10.42
2018-01-28T12:19:35.154Z,10.47
2018-01-28T12:22:02.596Z,10.52
2018-01-28T12:24:30.058Z,10.47
2018-01-28T12:26:57.528Z,10.44
2018-01-28T12:29:25.545Z,10.49
2018-01-28T12:32:03.201Z,10.52
2018-01-28T12:34:30.610Z,10.58
2018-01-28T12:36:58.525Z,10.53
2018-01-28T12:39:25.956Z,10.48
2018-01-28T12:41:53.380Z,10.49
2018-01-28T12:44:20.788Z,10.53
2018-01-28T12:46:48.345Z,10.68
2018-01-28T12:49:15.763Z,10.77
2018-01-28T12:51:43.174Z,10.70
2018-01-28T12:54:11.433Z,10.68
2018-01-28T12:56:38.872Z,10.69
2018-01-28T12:59:06.936Z,10.70
2018-01-28T13:01:34.383Z,10.67
2018-01-28T13:04:01.789Z,10.68
2018-01-28T13:06:29.289Z,10.68
2018-01-28T13:08:56.725Z,10.66
2018-01-28T13:11:24.137Z,10.78
2018-01-28T13:13:51.549Z,10.82
2018-01-28T13:16:18.977Z,10.83
2018-01-28T13:18:46.388Z,10.88
2018-01-28T13:21:13.809Z,10.89
2018-01-28T13:23:41.233Z,10.88
2018-01-28T13:26:08.663Z,10.85
2018-01-28T13:28:36.108Z,10.78
2018-01-28T13:31:03.573Z,10.73
2018-01-28T13:33:31.032Z,10.82
2018-01-28T13:35:58.493Z,10.84
2018-01-28T13:38:25.961Z,10.86
2018-01-28T13:40:54.414Z,10.86
2018-01-28T13:43:21.966Z,10.86
2018-01-28T13:45:49.392Z,10.88
2018-01-28T13:48:16.825Z,10.88
2018-01-28T13:50:44.315Z,10.87
2018-01-28T13:53:11.730Z,10.99
2018-01-28T13:55:39.388Z,11.02
2018-01-28T13:58:06.850Z,11.07
2018-01-28T14:00:34.268Z,11.21
2018-01-28T14:03:01.730Z,11.28
2018-01-28T14:05:29.160Z,11.39
2018-01-28T14:07:56.590Z,11.36
2018-01-28T14:10:24.001Z,11.37
2018-01-28T14:12:51.430Z,11.21
2018-01-28T14:15:25.884Z,11.14
2018-01-28T14:17:53.313Z,11.01
2018-01-28T14:20:20.739Z,11.09
2018-01-28T14:22:48.185Z,11.09
2018-01-28T14:25:15.637Z,11.07
2018-01-28T14:27:43.327Z,11.10
2018-01-28T14:30:10.741Z,11.08
2018-01-28T14:32:38.183Z,11.06
2018-01-28T14:35:05.675Z,11.03
2018-01-28T14:37:33.824Z,11.00
2018-01-28T14:40:01.261Z,11.01
2018-01-28T14:42:28.681Z,11.00
2018-01-28T14:44:56.126Z,10.94
2018-01-28T14:47:23.528Z,11.02
2018-01-28T14:49:50.953Z,11.04
2018-01-28T14:52:18.449Z,11.01
2018-01-28T14:54:45.876Z,11.06
2018-01-28T14:57:13.320Z,11.07
2018-01-28T14:59:40.773Z,11.02
2018-01-28T15:02:08.186Z,11.09
2018-01-28T15:04:35.710Z,11.06
2018-01-28T15:07:03.958Z,11.12
2018-01-28T15:09:31.385Z,11.15
2018-01-28T15:11:58.821Z,11.17
2018-01-28T15:14:29.167Z,11.14
2018-01-28T15:16:57.208Z,11.12
2018-01-28T15:19:24.629Z,11.10
2018-01-28T15:21:52.057Z,11.08
2018-01-28T15:24:20.385Z,11.08
2018-01-28T15:26:47.805Z,11.15
2018-01-28T15:29:15.264Z,11.21
2018-01-28T15:31:42.675Z,11.19
2018-01-28T15:34:10.183Z,11.21
2018-01-28T15:36:37.644Z,11.18
2018-01-28T15:39:05.910Z,11.15
2018-01-28T15:41:33.321Z,11.17
2018-01-28T15:44:00.785Z,11.15
2018-01-28T15:46:28.221Z,11.18
2018-01-28T15:48:55.655Z,11.24
2018-01-28T15:51:23.089Z,11.21
2018-01-28T15:53:50.553Z,11.14
2018-01-28T15:56:18.007Z,11.10
2018-01-28T15:58:45.446Z,11.09
2018-01-28T16:01:12.852Z,11.02
2018-01-28T16:03:40.274Z,11.13
2018-01-28T16:06:07.729Z,11.08
2018-01-28T16:08:35.169Z,11.11
2018-01-28T16:11:02.596Z,11.12
2018-01-28T16:13:30.045Z,11.10
2018-01-28T16:15:57.500Z,11.12
2018-01-28T16:18:25.799Z,11.11
2018-01-28T16:20:53.230Z,11.18
2018-01-28T16:23:20.659Z,11.21
2018-01-28T16:25:48.111Z,11.23
2018-01-28T16:28:15.568Z,11.22
2018-01-28T16:30:42.992Z,11.31
2018-01-28T16:33:10.418Z,11.28
2018-01-28T16:35:37.832Z,11.21
2018-01-28T16:38:05.271Z,11.21
2018-01-28T16:40:32.717Z,11.22
2018-01-28T16:43:00.157Z,11.25
2018-01-28T16:45:27.572Z,11.26
2018-01-28T16:47:55.006Z,11.26
2018-01-28T16:50:22.429Z,11.32
2018-01-28T16:52:49.843Z,11.27
2018-01-28T16:55:17.260Z,11.27
2018-01-28T16:57:44.926Z,11.28
2018-01-28T17:00:12.341Z,11.31
2018-01-28T17:02:39.760Z,11.25
2018-01-28T17:05:07.202Z,11.31
2018-01-28T17:07:34.630Z,11.32
2018-01-28T17:10:02.034Z,11.19
2018-01-28T17:12:29.486Z,11.30
2018-01-28T17:14:56.901Z,11.30
2018-01-28T17:17:24.310Z,11.21
2018-01-28T17:19:51.749Z,11.31
2018-01-28T17:22:19.189Z,11.32
2018-01-28T17:24:46.611Z,11.32
2018-01-28T17:27:14.057Z,11.35
2018-01-28T17:29:41.493Z,11.33
2018-01-28T17:32:08.918Z,11.34
2018-01-28T17:34:36.373Z,11.37
2018-01-28T17:37:03.788Z,11.31
2018-01-28T17:39:31.200Z,11.30
2018-01-28T17:41:58.665Z,11.41
2018-01-28T17:44:26.106Z,11.43
2018-01-28T17:46:55.446Z,11.39
2018-01-28T17:49:24.411Z,11.45
2018-01-28T17:51:51.813Z,11.49
2018-01-28T17:54:19.239Z,11.45
2018-01-28T17:56:46.673Z,11.39
2018-01-28T17:59:14.097Z,11.44
2018-01-28T18:01:41.522Z,11.38
2018-01-28T18:04:08.965Z,11.41
2018-01-28T18:06:36.397Z,11.37
2018-01-28T18:09:03.825Z,11.37
2018-01-28T18:11:31.541Z,11.35
2018-01-28T18:13:58.949Z,11.35
2018-01-28T18:16:27.341Z,11.39
2018-01-28T18:18:54.809Z,11.47
2018-01-28T18:21:22.232Z,11.49
2018-01-28T18:23:49.669Z,11.46
2018-01-28T18:26:18.221Z,11.47
2018-01-28T18:28:45.632Z,11.33
2018-01-28T18:31:13.066Z,11.42
2018-01-28T18:33:40.507Z,11.47
2018-01-28T18:36:07.920Z,11.41
2018-01-28T18:38:35.359Z,11.38
2018-01-28T18:41:02.793Z,11.36
2018-01-28T18:43:31.133Z,11.44
2018-01-28T18:45:58.812Z,11.43
2018-01-28T18:48:26.255Z,11.40
2018-01-28T18:50:53.732Z,11.40
2018-01-28T18:53:21.155Z,11.42
2018-01-28T18:55:48.953Z,11.44
2018-01-28T18:58:16.373Z,11.39
2018-01-28T19:00:43.845Z,11.40
2018-01-28T19:03:11.257Z,11.35
2018-01-28T19:05:39.209Z,11.35
2018-01-28T19:08:10.431Z,11.45
2018-01-28T19:10:37.863Z,11.42
2018-01-28T19:13:05.317Z,11.38
2018-01-28T19:15:32.741Z,11.40
2018-01-28T19:18:00.165Z,11.40
2018-01-28T19:20:28.010Z,11.46
2018-01-28T19:22:55.425Z,11.42
2018-01-28T19:25:23.244Z,11.46
2018-01-28T19:27:50.891Z,11.43
2018-01-28T19:30:18.313Z,11.44
2018-01-28T19:32:45.736Z,11.47
2018-01-28T19:35:13.169Z,11.52
2018-01-28T19:37:40.731Z,11.49
2018-01-28T19:40:08.149Z,11.50
2018-01-28T19:42:35.609Z,11.52
2018-01-28T19:45:03.431Z,11.50
2018-01-28T19:47:30.982Z,11.48
2018-01-28T19:49:58.397Z,11.51
2018-01-28T19:52:25.927Z,11.46
2018-01-28T19:54:53.420Z,11.49
2018-01-28T19:57:20.865Z,11.52
2018-01-28T19:59:48.312Z,11.50
2018-01-28T20:02:15.731Z,11.48
2018-01-28T20:04:43.185Z,11.49
2018-01-28T20:07:10.609Z,11.51
2018-01-28T20:09:38.050Z,11.49
2018-01-28T20:12:05.468Z,11.49
2018-01-28T20:14:32.926Z,11.56
2018-01-28T20:17:00.341Z,11.51
2018-01-28T20:19:27.759Z,11.47
2018-01-28T20:21:56.070Z,11.52
2018-01-28T20:24:23.494Z,11.57
2018-01-28T20:26:50.896Z,11.55
2018-01-28T20:29:18.416Z,11.54
2018-01-28T20:31:45.885Z,11.59
2018-01-28T20:34:13.318Z,11.54
2018-01-28T20:36:40.729Z,11.52
2018-01-28T20:39:08.205Z,11.56
2018-01-28T20:41:37.001Z,11.57
2018-01-28T20:44:04.449Z,11.59
2018-01-28T20:46:31.880Z,11.61
2018-01-28T20:48:59.309Z,11.62
2018-01-28T20:51:26.718Z,11.65
2018-01-28T20:53:54.254Z,11.56
2018-01-28T20:56:21.663Z,11.60
2018-01-28T20:58:49.085Z,11.59
2018-01-28T21:01:16.509Z,11.56
2018-01-28T21:03:43.929Z,11.60
2018-01-28T21:06:11.357Z,11.63
2018-01-28T21:08:39.234Z,11.65
2018-01-28T21:11:06.654Z,11.70
2018-01-28T21:13:34.079Z,11.64
2018-01-28T21:16:01.496Z,11.66
2018-01-28T21:18:28.927Z,11.61
2018-01-28T21:20:56.693Z,11.64
2018-01-28T21:23:24.113Z,11.66
2018-01-28T21:25:51.525Z,11.64
2018-01-28T21:28:18.957Z,11.67
2018-01-28T21:30:46.381Z,11.61
2018-01-28T21:33:13.813Z,11.66
2018-01-28T21:35:41.224Z,11.73
2018-01-28T21:38:08.638Z,11.83
2018-01-28T21:40:36.101Z,11.78
2018-01-28T21:43:03.509Z,11.77
2018-01-28T21:45:30.937Z,11.81
2018-01-28T21:47:58.345Z,11.77
2018-01-28T21:50:25.758Z,11.81
2018-01-28T21:52:53.185Z,11.77
2018-01-28T21:55:20.621Z,11.71
2018-01-28T21:57:48.044Z,11.76
2018-01-28T22:00:15.465Z,11.74
2018-01-28T22:02:42.884Z,11.78
2018-01-28T22:05:10.302Z,11.85
2018-01-28T22:07:37.716Z,11.89
2018-01-28T22:10:05.183Z,11.79
2018-01-28T22:12:32.602Z,11.68
2018-01-28T22:15:01.064Z,11.63
2018-01-28T22:17:28.472Z,11.61
2018-01-28T22:19:55.884Z,11.64
2018-01-28T22:22:23.315Z,11.62
2018-01-28T22:24:50.732Z,11.62
2018-01-28T22:27:18.159Z,11.53
2018-01-28T22:29:45.573Z,11.58
2018-01-28T22:32:14.768Z,11.61
2018-01-28T22:34:42.225Z,11.52
2018-01-28T22:37:09.621Z,11.48
2018-01-28T22:39:37.077Z,11.60
2018-01-28T22:42:04.521Z,11.58
2018-01-28T22:44:31.928Z,11.55
2018-01-28T22:46:59.348Z,11.54
2018-01-28T22:49:26.788Z,11.59
2018-01-28T22:51:54.205Z,11.52
2018-01-28T22:54:21.621Z,11.45
2018-01-28T22:56:49.050Z,11.33
2018-01-28T22:59:16.472Z,11.34
2018-01-28T23:01:43.893Z,11.40
2018-01-28T23:04:11.312Z,11.28
2018-01-28T23:06:38.720Z,11.31
2018-01-28T23:09:06.136Z,11.26
2018-01-28T23:11:33.561Z,11.23
2018-01-28T23:14:00.977Z,11.30
2018-01-28T23:16:28.390Z,11.31
2018-01-28T23:18:55.809Z,11.33
2018-01-28T23:21:23.237Z,11.41
2018-01-28T23:23:50.644Z,11.34
2018-01-28T23:26:18.112Z,11.31
2018-01-28T23:28:45.532Z,11.29
2018-01-28T23:31:12.949Z,11.21
2018-01-28T23:33:40.379Z,11.19
2018-01-28T23:36:07.788Z,11.17
2018-01-28T23:38:35.209Z,11.16
2018-01-28T23:41:02.652Z,11.10
2018-01-28T23:43:30.065Z,11.10
2018-01-28T23:45:57.485Z,11.08
2018-01-28T23:48:24.927Z,11.08
2018-01-28T23:50:52.369Z,10.96
2018-01-28T23:53:19.793Z,10.95
2018-01-28T23:55:47.238Z,10.93
2018-01-28T23:58:14.653Z,10.92
